sensor_id;sensor_type;location;lat;lon;timestamp;temperature;humidity
7588;DHT22;3835;48.850;8.938;2023-02-28T00:00:38;-2.80;99.90
7588;DHT22;3835;48.850;8.938;2023-02-28T00:03:05;-2.80;99.90
7588;DHT22;3835;48.850;8.938;2023-02-28T00:05:32;-2.80;99.90
7588;DHT22;3835;48.850;8.938;2023-02-28T00:07:59;-2.70;99.90
7588;DHT22;3835;48.850;8.938;2023-02-28T00:10:27;-2.70;99.90
7588;DHT22;3835;48.850;8.938;2023-02-28T00:12:56;-2.80;99.90
7588;DHT22;3835;48.850;8.938;2023-02-28T00:15:26;-2.80;99.90
7588;DHT22;3835;48.850;8.938;2023-02-28T00:17:54;-2.80;99.90
7588;DHT22;3835;48.850;8.938;2023-02-28T00:20:22;-2.90;99.90
7588;DHT22;3835;48.850;8.938;2023-02-28T00:22:50;-2.90;99.90
7588;DHT22;3835;48.850;8.938;2023-02-28T00:25:19;-2.90;99.90
7588;DHT22;3835;48.850;8.938;2023-02-28T00:27:47;-2.90;99.90
7588;DHT22;3835;48.850;8.938;2023-02-28T00:30:15;-2.80;99.90
7588;DHT22;3835;48.850;8.938;2023-02-28T00:32:42;-2.90;99.90
7588;DHT22;3835;48.850;8.938;2023-02-28T00:35:12;-2.90;99.90
7588;DHT22;3835;48.850;8.938;2023-02-28T00:37:39;-3.00;99.90
7588;DHT22;3835;48.850;8.938;2023-02-28T00:40:07;-3.10;99.90
7588;DHT22;3835;48.850;8.938;2023-02-28T00:42:35;-3.10;99.90
7588;DHT22;3835;48.850;8.938;2023-02-28T00:45:02;-3.10;99.90
7588;DHT22;3835;48.850;8.938;2023-02-28T00:47:30;-3.00;99.90
7588;DHT22;3835;48.850;8.938;2023-02-28T00:49:57;-3.00;99.90
7588;DHT22;3835;48.850;8.938;2023-02-28T00:52:25;-3.10;99.90
7588;DHT22;3835;48.850;8.938;2023-02-28T00:54:52;-3.20;99.90
7588;DHT22;3835;48.850;8.938;2023-02-28T00:57:19;-3.20;99.90
7588;DHT22;3835;48.850;8.938;2023-02-28T00:59:45;-3.10;99.90
7588;DHT22;3835;48.850;8.938;2023-02-28T01:02:12;-3.20;99.90
7588;DHT22;3835;48.850;8.938;2023-02-28T01:04:39;-3.10;99.90
7588;DHT22;3835;48.850;8.938;2023-02-28T01:07:06;-3.10;99.90
7588;DHT22;3835;48.850;8.938;2023-02-28T01:09:34;-3.10;99.90
7588;DHT22;3835;48.850;8.938;2023-02-28T01:12:01;-3.10;99.90
7588;DHT22;3835;48.850;8.938;2023-02-28T01:14:27;-3.10;99.90
7588;DHT22;3835;48.850;8.938;2023-02-28T01:16:54;-3.20;99.90
7588;DHT22;3835;48.850;8.938;2023-02-28T01:19:21;-3.20;99.90
7588;DHT22;3835;48.850;8.938;2023-02-28T01:21:48;-3.20;99.90
7588;DHT22;3835;48.850;8.938;2023-02-28T01:24:14;-3.20;99.90
7588;DHT22;3835;48.850;8.938;2023-02-28T01:26:43;-3.20;99.90
7588;DHT22;3835;48.850;8.938;2023-02-28T01:29:09;-3.20;99.90
7588;DHT22;3835;48.850;8.938;2023-02-28T01:31:36;-3.20;99.90
7588;DHT22;3835;48.850;8.938;2023-02-28T01:34:03;-3.20;99.90
7588;DHT22;3835;48.850;8.938;2023-02-28T01:36:30;-3.20;99.90
7588;DHT22;3835;48.850;8.938;2023-02-28T01:38:57;-3.20;99.90
7588;DHT22;3835;48.850;8.938;2023-02-28T01:41:25;-3.20;99.90
7588;DHT22;3835;48.850;8.938;2023-02-28T01:43:56;-3.20;99.90
7588;DHT22;3835;48.850;8.938;2023-02-28T01:46:24;-3.20;99.90
7588;DHT22;3835;48.850;8.938;2023-02-28T01:48:53;-3.20;99.90
7588;DHT22;3835;48.850;8.938;2023-02-28T01:51:25;-3.30;99.90
7588;DHT22;3835;48.850;8.938;2023-02-28T01:53:56;-3.30;99.90
7588;DHT22;3835;48.850;8.938;2023-02-28T01:56:27;-3.30;99.90
7588;DHT22;3835;48.850;8.938;2023-02-28T01:58:57;-3.40;99.90
7588;DHT22;3835;48.850;8.938;2023-02-28T02:01:25;-3.40;99.90
7588;DHT22;3835;48.850;8.938;2023-02-28T02:03:55;-3.30;99.90
7588;DHT22;3835;48.850;8.938;2023-02-28T02:06:23;-3.30;99.90
7588;DHT22;3835;48.850;8.938;2023-02-28T02:08:51;-3.30;99.90
7588;DHT22;3835;48.850;8.938;2023-02-28T02:11:19;-3.20;99.90
7588;DHT22;3835;48.850;8.938;2023-02-28T02:16:58;-3.20;99.90
7588;DHT22;3835;48.850;8.938;2023-02-28T02:20:00;-3.20;99.90
7588;DHT22;3835;48.850;8.938;2023-02-28T02:25:26;-3.20;99.90
7588;DHT22;3835;48.850;8.938;2023-02-28T02:31:33;-3.20;99.90
7588;DHT22;3835;48.850;8.938;2023-02-28T02:37:10;-3.20;99.90
7588;DHT22;3835;48.850;8.938;2023-02-28T02:39:47;-3.20;99.90
7588;DHT22;3835;48.850;8.938;2023-02-28T02:42:19;-3.20;99.90
7588;DHT22;3835;48.850;8.938;2023-02-28T02:44:52;-3.20;99.90
7588;DHT22;3835;48.850;8.938;2023-02-28T02:47:24;-3.20;99.90
7588;DHT22;3835;48.850;8.938;2023-02-28T02:49:55;-3.30;99.90
7588;DHT22;3835;48.850;8.938;2023-02-28T02:52:29;-3.20;99.90
7588;DHT22;3835;48.850;8.938;2023-02-28T02:54:58;-3.20;99.90
7588;DHT22;3835;48.850;8.938;2023-02-28T02:57:31;-3.30;99.90
7588;DHT22;3835;48.850;8.938;2023-02-28T03:00:00;-3.20;99.90
7588;DHT22;3835;48.850;8.938;2023-02-28T03:02:30;-3.20;99.90
7588;DHT22;3835;48.850;8.938;2023-02-28T03:05:04;-3.20;99.90
7588;DHT22;3835;48.850;8.938;2023-02-28T03:07:32;-3.20;99.90
7588;DHT22;3835;48.850;8.938;2023-02-28T03:09:59;-3.20;99.90
7588;DHT22;3835;48.850;8.938;2023-02-28T03:12:33;-3.20;99.90
7588;DHT22;3835;48.850;8.938;2023-02-28T03:15:08;-3.20;99.90
7588;DHT22;3835;48.850;8.938;2023-02-28T03:17:51;-3.20;99.90
7588;DHT22;3835;48.850;8.938;2023-02-28T03:20:32;-3.20;99.90
7588;DHT22;3835;48.850;8.938;2023-02-28T03:23:10;-3.10;99.90
7588;DHT22;3835;48.850;8.938;2023-02-28T03:25:50;-3.10;99.90
7588;DHT22;3835;48.850;8.938;2023-02-28T03:28:26;-3.10;99.90
7588;DHT22;3835;48.850;8.938;2023-02-28T03:30:57;-3.10;99.90
7588;DHT22;3835;48.850;8.938;2023-02-28T03:33:29;-3.00;99.90
7588;DHT22;3835;48.850;8.938;2023-02-28T03:36:01;-3.10;99.90
7588;DHT22;3835;48.850;8.938;2023-02-28T03:38:33;-3.00;99.90
7588;DHT22;3835;48.850;8.938;2023-02-28T03:41:04;-3.00;99.90
7588;DHT22;3835;48.850;8.938;2023-02-28T03:43:35;-2.90;99.90
7588;DHT22;3835;48.850;8.938;2023-02-28T03:46:08;-2.90;99.90
7588;DHT22;3835;48.850;8.938;2023-02-28T03:48:39;-3.00;99.90
7588;DHT22;3835;48.850;8.938;2023-02-28T03:51:12;-3.00;99.90
7588;DHT22;3835;48.850;8.938;2023-02-28T03:53:45;-3.00;99.90
7588;DHT22;3835;48.850;8.938;2023-02-28T03:56:17;-3.00;99.90
7588;DHT22;3835;48.850;8.938;2023-02-28T03:58:49;-3.00;99.90
7588;DHT22;3835;48.850;8.938;2023-02-28T04:01:21;-3.00;99.90
7588;DHT22;3835;48.850;8.938;2023-02-28T04:03:50;-2.90;99.90
7588;DHT22;3835;48.850;8.938;2023-02-28T04:06:21;-2.90;99.90
7588;DHT22;3835;48.850;8.938;2023-02-28T04:08:49;-2.90;99.90
7588;DHT22;3835;48.850;8.938;2023-02-28T04:11:23;-2.90;99.90
7588;DHT22;3835;48.850;8.938;2023-02-28T04:13:50;-2.90;99.90
7588;DHT22;3835;48.850;8.938;2023-02-28T04:16:17;-2.90;99.90
7588;DHT22;3835;48.850;8.938;2023-02-28T04:18:44;-2.80;99.90
7588;DHT22;3835;48.850;8.938;2023-02-28T04:21:11;-2.80;99.90
7588;DHT22;3835;48.850;8.938;2023-02-28T04:23:39;-2.80;99.90
7588;DHT22;3835;48.850;8.938;2023-02-28T04:26:06;-2.80;99.90
7588;DHT22;3835;48.850;8.938;2023-02-28T04:28:33;-2.80;99.90
7588;DHT22;3835;48.850;8.938;2023-02-28T04:31:03;-2.70;99.90
7588;DHT22;3835;48.850;8.938;2023-02-28T04:33:31;-2.70;99.90
7588;DHT22;3835;48.850;8.938;2023-02-28T04:35:59;-2.70;99.90
7588;DHT22;3835;48.850;8.938;2023-02-28T04:38:28;-2.70;99.90
7588;DHT22;3835;48.850;8.938;2023-02-28T04:40:58;-2.70;99.90
7588;DHT22;3835;48.850;8.938;2023-02-28T04:43:26;-2.70;99.90
7588;DHT22;3835;48.850;8.938;2023-02-28T04:45:53;-2.70;99.90
7588;DHT22;3835;48.850;8.938;2023-02-28T04:48:22;-2.70;99.90
7588;DHT22;3835;48.850;8.938;2023-02-28T04:50:49;-2.60;99.90
7588;DHT22;3835;48.850;8.938;2023-02-28T04:53:15;-2.70;99.90
7588;DHT22;3835;48.850;8.938;2023-02-28T04:55:42;-2.70;99.90
7588;DHT22;3835;48.850;8.938;2023-02-28T04:58:10;-2.60;99.90
7588;DHT22;3835;48.850;8.938;2023-02-28T05:00:37;-2.60;99.90
7588;DHT22;3835;48.850;8.938;2023-02-28T05:03:04;-2.60;99.90
7588;DHT22;3835;48.850;8.938;2023-02-28T05:05:31;-2.60;99.90
7588;DHT22;3835;48.850;8.938;2023-02-28T05:07:58;-2.60;99.90
7588;DHT22;3835;48.850;8.938;2023-02-28T05:10:25;-2.60;99.90
7588;DHT22;3835;48.850;8.938;2023-02-28T05:12:51;-2.60;99.90
7588;DHT22;3835;48.850;8.938;2023-02-28T05:15:19;-2.50;99.90
7588;DHT22;3835;48.850;8.938;2023-02-28T05:17:46;-2.50;99.90
7588;DHT22;3835;48.850;8.938;2023-02-28T05:20:13;-2.50;99.90
7588;DHT22;3835;48.850;8.938;2023-02-28T05:22:40;-2.50;99.90
7588;DHT22;3835;48.850;8.938;2023-02-28T05:25:09;-2.30;99.90
7588;DHT22;3835;48.850;8.938;2023-02-28T05:27:37;-2.40;99.90
7588;DHT22;3835;48.850;8.938;2023-02-28T05:30:05;-2.40;99.90
7588;DHT22;3835;48.850;8.938;2023-02-28T05:32:33;-2.40;99.90
7588;DHT22;3835;48.850;8.938;2023-02-28T05:35:00;-2.40;99.90
7588;DHT22;3835;48.850;8.938;2023-02-28T05:37:27;-2.40;99.90
7588;DHT22;3835;48.850;8.938;2023-02-28T05:39:54;-2.40;99.90
7588;DHT22;3835;48.850;8.938;2023-02-28T05:42:21;-2.40;99.90
7588;DHT22;3835;48.850;8.938;2023-02-28T05:44:48;-2.30;99.90
7588;DHT22;3835;48.850;8.938;2023-02-28T05:47:14;-2.30;99.90
7588;DHT22;3835;48.850;8.938;2023-02-28T05:49:43;-2.30;99.90
7588;DHT22;3835;48.850;8.938;2023-02-28T05:52:10;-2.20;99.90
7588;DHT22;3835;48.850;8.938;2023-02-28T05:54:37;-2.20;99.90
7588;DHT22;3835;48.850;8.938;2023-02-28T05:57:03;-2.30;99.90
7588;DHT22;3835;48.850;8.938;2023-02-28T05:59:30;-2.40;99.90
7588;DHT22;3835;48.850;8.938;2023-02-28T06:01:57;-2.40;99.90
7588;DHT22;3835;48.850;8.938;2023-02-28T06:04:24;-2.40;99.90
7588;DHT22;3835;48.850;8.938;2023-02-28T06:06:52;-2.40;99.90
7588;DHT22;3835;48.850;8.938;2023-02-28T06:09:18;-2.40;99.90
7588;DHT22;3835;48.850;8.938;2023-02-28T06:11:46;-2.40;99.90
7588;DHT22;3835;48.850;8.938;2023-02-28T06:14:15;-2.40;99.90
7588;DHT22;3835;48.850;8.938;2023-02-28T06:16:42;-2.40;99.90
7588;DHT22;3835;48.850;8.938;2023-02-28T06:19:10;-2.40;99.90
7588;DHT22;3835;48.850;8.938;2023-02-28T06:21:37;-2.40;99.90
7588;DHT22;3835;48.850;8.938;2023-02-28T06:24:06;-2.40;99.90
7588;DHT22;3835;48.850;8.938;2023-02-28T06:26:32;-2.40;99.90
7588;DHT22;3835;48.850;8.938;2023-02-28T06:28:59;-2.40;99.90
7588;DHT22;3835;48.850;8.938;2023-02-28T06:31:27;-2.40;99.90
7588;DHT22;3835;48.850;8.938;2023-02-28T06:33:54;-2.40;99.90
7588;DHT22;3835;48.850;8.938;2023-02-28T06:36:21;-2.40;99.90
7588;DHT22;3835;48.850;8.938;2023-02-28T06:38:48;-2.40;99.90
7588;DHT22;3835;48.850;8.938;2023-02-28T06:41:21;-2.40;99.90
7588;DHT22;3835;48.850;8.938;2023-02-28T06:43:48;-2.30;99.90
7588;DHT22;3835;48.850;8.938;2023-02-28T06:46:15;-2.30;99.90
7588;DHT22;3835;48.850;8.938;2023-02-28T06:48:43;-2.30;99.90
7588;DHT22;3835;48.850;8.938;2023-02-28T06:51:11;-2.30;99.90
7588;DHT22;3835;48.850;8.938;2023-02-28T06:53:39;-2.30;99.90
7588;DHT22;3835;48.850;8.938;2023-02-28T06:56:08;-2.30;99.90
7588;DHT22;3835;48.850;8.938;2023-02-28T06:58:37;-2.30;99.90
7588;DHT22;3835;48.850;8.938;2023-02-28T07:01:06;-2.30;99.90
7588;DHT22;3835;48.850;8.938;2023-02-28T07:03:35;-2.30;99.90
7588;DHT22;3835;48.850;8.938;2023-02-28T07:06:02;-2.30;99.90
7588;DHT22;3835;48.850;8.938;2023-02-28T07:08:29;-2.20;99.90
7588;DHT22;3835;48.850;8.938;2023-02-28T07:10:57;-2.20;99.90
7588;DHT22;3835;48.850;8.938;2023-02-28T07:13:24;-2.20;99.90
7588;DHT22;3835;48.850;8.938;2023-02-28T07:15:56;-2.10;99.90
7588;DHT22;3835;48.850;8.938;2023-02-28T07:18:24;-2.10;99.90
7588;DHT22;3835;48.850;8.938;2023-02-28T07:20:51;-2.10;99.90
7588;DHT22;3835;48.850;8.938;2023-02-28T07:23:18;-2.00;99.90
7588;DHT22;3835;48.850;8.938;2023-02-28T07:25:45;-2.00;99.90
7588;DHT22;3835;48.850;8.938;2023-02-28T07:28:13;-2.00;99.90
7588;DHT22;3835;48.850;8.938;2023-02-28T07:30:40;-2.00;99.90
7588;DHT22;3835;48.850;8.938;2023-02-28T07:33:08;-1.90;99.90
7588;DHT22;3835;48.850;8.938;2023-02-28T07:35:35;-1.90;99.90
7588;DHT22;3835;48.850;8.938;2023-02-28T07:38:02;-1.90;99.90
7588;DHT22;3835;48.850;8.938;2023-02-28T07:40:30;-1.80;99.90
7588;DHT22;3835;48.850;8.938;2023-02-28T07:42:58;-1.70;99.90
7588;DHT22;3835;48.850;8.938;2023-02-28T07:45:25;-1.70;99.90
7588;DHT22;3835;48.850;8.938;2023-02-28T07:47:55;-1.70;99.90
7588;DHT22;3835;48.850;8.938;2023-02-28T07:50:23;-1.70;99.90
7588;DHT22;3835;48.850;8.938;2023-02-28T07:52:50;-1.80;99.90
7588;DHT22;3835;48.850;8.938;2023-02-28T07:55:17;-1.80;99.90
7588;DHT22;3835;48.850;8.938;2023-02-28T07:57:43;-1.80;99.90
7588;DHT22;3835;48.850;8.938;2023-02-28T08:00:12;-1.80;99.90
7588;DHT22;3835;48.850;8.938;2023-02-28T08:02:39;-1.80;99.90
7588;DHT22;3835;48.850;8.938;2023-02-28T08:05:06;-1.80;99.90
7588;DHT22;3835;48.850;8.938;2023-02-28T08:07:35;-1.70;99.90
7588;DHT22;3835;48.850;8.938;2023-02-28T08:10:02;-1.80;99.90
7588;DHT22;3835;48.850;8.938;2023-02-28T08:12:31;-1.70;99.90
7588;DHT22;3835;48.850;8.938;2023-02-28T08:14:57;-1.70;99.90
7588;DHT22;3835;48.850;8.938;2023-02-28T08:17:24;-1.70;99.90
7588;DHT22;3835;48.850;8.938;2023-02-28T08:19:51;-1.70;99.90
7588;DHT22;3835;48.850;8.938;2023-02-28T08:22:18;-1.60;99.90
7588;DHT22;3835;48.850;8.938;2023-02-28T08:24:46;-1.60;99.90
7588;DHT22;3835;48.850;8.938;2023-02-28T08:27:13;-1.60;99.90
7588;DHT22;3835;48.850;8.938;2023-02-28T08:29:40;-1.50;99.90
7588;DHT22;3835;48.850;8.938;2023-02-28T08:32:07;-1.60;99.90
7588;DHT22;3835;48.850;8.938;2023-02-28T08:34:34;-1.60;99.90
7588;DHT22;3835;48.850;8.938;2023-02-28T08:37:00;-1.50;99.90
7588;DHT22;3835;48.850;8.938;2023-02-28T08:39:27;-1.50;99.90
7588;DHT22;3835;48.850;8.938;2023-02-28T08:41:55;-1.50;99.90
7588;DHT22;3835;48.850;8.938;2023-02-28T08:44:22;-1.50;99.90
7588;DHT22;3835;48.850;8.938;2023-02-28T08:46:49;-1.40;99.90
7588;DHT22;3835;48.850;8.938;2023-02-28T08:49:15;-1.30;99.90
7588;DHT22;3835;48.850;8.938;2023-02-28T08:51:42;-1.30;99.90
7588;DHT22;3835;48.850;8.938;2023-02-28T08:54:09;-1.30;99.90
7588;DHT22;3835;48.850;8.938;2023-02-28T08:56:38;-1.20;99.90
7588;DHT22;3835;48.850;8.938;2023-02-28T08:59:06;-1.20;99.90
7588;DHT22;3835;48.850;8.938;2023-02-28T09:01:33;-1.10;99.90
7588;DHT22;3835;48.850;8.938;2023-02-28T09:04:00;-1.20;99.90
7588;DHT22;3835;48.850;8.938;2023-02-28T09:06:28;-1.20;99.90
7588;DHT22;3835;48.850;8.938;2023-02-28T09:08:56;-1.20;99.90
7588;DHT22;3835;48.850;8.938;2023-02-28T09:11:24;-1.00;99.90
7588;DHT22;3835;48.850;8.938;2023-02-28T09:13:51;-1.00;99.90
7588;DHT22;3835;48.850;8.938;2023-02-28T09:16:19;-0.90;99.90
7588;DHT22;3835;48.850;8.938;2023-02-28T09:18:46;-0.90;99.90
7588;DHT22;3835;48.850;8.938;2023-02-28T09:21:16;-0.90;99.90
7588;DHT22;3835;48.850;8.938;2023-02-28T09:23:45;-0.90;99.90
7588;DHT22;3835;48.850;8.938;2023-02-28T09:26:14;-0.90;99.90
7588;DHT22;3835;48.850;8.938;2023-02-28T09:28:41;-0.90;99.90
7588;DHT22;3835;48.850;8.938;2023-02-28T09:31:12;-0.90;99.90
7588;DHT22;3835;48.850;8.938;2023-02-28T09:33:40;-0.80;99.90
7588;DHT22;3835;48.850;8.938;2023-02-28T09:36:07;-0.70;99.90
7588;DHT22;3835;48.850;8.938;2023-02-28T09:38:34;-0.50;99.90
7588;DHT22;3835;48.850;8.938;2023-02-28T09:41:03;-0.50;99.90
7588;DHT22;3835;48.850;8.938;2023-02-28T09:43:34;-0.40;99.90
7588;DHT22;3835;48.850;8.938;2023-02-28T09:46:07;-0.40;99.90
7588;DHT22;3835;48.850;8.938;2023-02-28T09:48:41;-0.20;99.90
7588;DHT22;3835;48.850;8.938;2023-02-28T09:51:16;-0.20;99.90
7588;DHT22;3835;48.850;8.938;2023-02-28T09:53:50;-0.10;99.90
7588;DHT22;3835;48.850;8.938;2023-02-28T09:56:20;-0.20;99.90
7588;DHT22;3835;48.850;8.938;2023-02-28T09:58:53;-0.20;99.90
7588;DHT22;3835;48.850;8.938;2023-02-28T10:01:25;-0.20;99.90
7588;DHT22;3835;48.850;8.938;2023-02-28T10:04:00;-0.20;99.90
7588;DHT22;3835;48.850;8.938;2023-02-28T10:06:35;-0.10;99.90
7588;DHT22;3835;48.850;8.938;2023-02-28T10:09:08;0.00;99.90
7588;DHT22;3835;48.850;8.938;2023-02-28T10:11:40;0.00;99.90
7588;DHT22;3835;48.850;8.938;2023-02-28T10:14:14;0.10;99.90
7588;DHT22;3835;48.850;8.938;2023-02-28T10:16:44;0.20;99.90
7588;DHT22;3835;48.850;8.938;2023-02-28T10:19:22;0.20;99.90
7588;DHT22;3835;48.850;8.938;2023-02-28T10:21:56;0.10;99.90
7588;DHT22;3835;48.850;8.938;2023-02-28T10:24:28;0.10;99.90
7588;DHT22;3835;48.850;8.938;2023-02-28T10:27:00;0.20;99.90
7588;DHT22;3835;48.850;8.938;2023-02-28T10:29:27;0.20;99.90
7588;DHT22;3835;48.850;8.938;2023-02-28T10:32:01;0.40;99.90
7588;DHT22;3835;48.850;8.938;2023-02-28T10:34:30;0.30;99.90
7588;DHT22;3835;48.850;8.938;2023-02-28T10:36:58;0.30;99.90
7588;DHT22;3835;48.850;8.938;2023-02-28T10:39:37;0.40;99.90
7588;DHT22;3835;48.850;8.938;2023-02-28T10:42:05;0.60;99.90
7588;DHT22;3835;48.850;8.938;2023-02-28T10:44:44;0.70;99.90
7588;DHT22;3835;48.850;8.938;2023-02-28T10:47:14;0.80;99.90
7588;DHT22;3835;48.850;8.938;2023-02-28T10:49:48;0.60;99.90
7588;DHT22;3835;48.850;8.938;2023-02-28T10:52:33;0.60;99.90
7588;DHT22;3835;48.850;8.938;2023-02-28T10:55:19;0.70;99.90
7588;DHT22;3835;48.850;8.938;2023-02-28T10:57:47;0.70;99.90
7588;DHT22;3835;48.850;8.938;2023-02-28T11:00:17;0.80;99.90
7588;DHT22;3835;48.850;8.938;2023-02-28T11:02:45;1.30;99.90
7588;DHT22;3835;48.850;8.938;2023-02-28T11:05:28;2.00;99.90
7588;DHT22;3835;48.850;8.938;2023-02-28T11:10:39;1.40;99.90
7588;DHT22;3835;48.850;8.938;2023-02-28T11:13:06;1.50;99.90
7588;DHT22;3835;48.850;8.938;2023-02-28T11:15:33;1.60;99.90
7588;DHT22;3835;48.850;8.938;2023-02-28T11:18:02;1.90;99.90
7588;DHT22;3835;48.850;8.938;2023-02-28T11:20:33;1.60;99.90
7588;DHT22;3835;48.850;8.938;2023-02-28T11:23:02;1.50;99.90
7588;DHT22;3835;48.850;8.938;2023-02-28T11:25:32;1.60;99.90
7588;DHT22;3835;48.850;8.938;2023-02-28T11:28:01;1.80;99.90
7588;DHT22;3835;48.850;8.938;2023-02-28T11:30:35;1.80;99.90
7588;DHT22;3835;48.850;8.938;2023-02-28T11:33:20;1.80;99.90
7588;DHT22;3835;48.850;8.938;2023-02-28T11:35:50;2.10;99.90
7588;DHT22;3835;48.850;8.938;2023-02-28T11:38:17;2.30;99.90
7588;DHT22;3835;48.850;8.938;2023-02-28T11:40:50;2.30;99.90
7588;DHT22;3835;48.850;8.938;2023-02-28T11:43:30;2.40;99.90
7588;DHT22;3835;48.850;8.938;2023-02-28T11:46:11;2.40;99.90
7588;DHT22;3835;48.850;8.938;2023-02-28T11:48:47;2.20;99.90
7588;DHT22;3835;48.850;8.938;2023-02-28T11:51:21;2.20;99.90
7588;DHT22;3835;48.850;8.938;2023-02-28T11:54:21;2.10;99.90
7588;DHT22;3835;48.850;8.938;2023-02-28T11:56:53;1.90;99.90
7588;DHT22;3835;48.850;8.938;2023-02-28T11:59:38;2.00;99.90
7588;DHT22;3835;48.850;8.938;2023-02-28T12:02:24;2.10;99.90
7588;DHT22;3835;48.850;8.938;2023-02-28T12:05:00;2.20;99.90
7588;DHT22;3835;48.850;8.938;2023-02-28T12:07:39;2.30;99.90
7588;DHT22;3835;48.850;8.938;2023-02-28T12:10:20;2.40;99.90
7588;DHT22;3835;48.850;8.938;2023-02-28T12:12:59;2.40;99.90
7588;DHT22;3835;48.850;8.938;2023-02-28T12:18:30;2.20;99.90
7588;DHT22;3835;48.850;8.938;2023-02-28T12:21:07;2.30;99.90
7588;DHT22;3835;48.850;8.938;2023-02-28T12:23:54;2.50;99.90
7588;DHT22;3835;48.850;8.938;2023-02-28T12:26:31;2.40;99.90
7588;DHT22;3835;48.850;8.938;2023-02-28T12:29:07;2.40;99.90
7588;DHT22;3835;48.850;8.938;2023-02-28T12:31:37;2.60;99.90
7588;DHT22;3835;48.850;8.938;2023-02-28T12:34:07;2.70;99.90
7588;DHT22;3835;48.850;8.938;2023-02-28T12:36:36;2.60;99.90
7588;DHT22;3835;48.850;8.938;2023-02-28T12:39:10;2.70;99.90
7588;DHT22;3835;48.850;8.938;2023-02-28T12:41:41;2.70;99.90
7588;DHT22;3835;48.850;8.938;2023-02-28T12:44:12;2.80;99.90
7588;DHT22;3835;48.850;8.938;2023-02-28T12:46:42;3.00;99.90
7588;DHT22;3835;48.850;8.938;2023-02-28T12:49:14;3.20;99.90
7588;DHT22;3835;48.850;8.938;2023-02-28T12:51:42;3.20;99.90
7588;DHT22;3835;48.850;8.938;2023-02-28T12:54:18;3.00;99.90
7588;DHT22;3835;48.850;8.938;2023-02-28T12:56:49;2.90;99.90
7588;DHT22;3835;48.850;8.938;2023-02-28T12:59:25;3.00;99.90
7588;DHT22;3835;48.850;8.938;2023-02-28T13:02:02;3.00;99.90
7588;DHT22;3835;48.850;8.938;2023-02-28T13:05:02;3.10;99.90
7588;DHT22;3835;48.850;8.938;2023-02-28T13:07:53;3.10;99.90
7588;DHT22;3835;48.850;8.938;2023-02-28T13:10:38;3.00;99.90
7588;DHT22;3835;48.850;8.938;2023-02-28T13:13:06;3.00;99.90
7588;DHT22;3835;48.850;8.938;2023-02-28T13:15:33;3.00;99.90
7588;DHT22;3835;48.850;8.938;2023-02-28T13:18:03;3.20;99.90
7588;DHT22;3835;48.850;8.938;2023-02-28T13:20:35;3.50;99.90
7588;DHT22;3835;48.850;8.938;2023-02-28T13:23:03;3.50;99.90
7588;DHT22;3835;48.850;8.938;2023-02-28T13:25:53;3.50;99.90
7588;DHT22;3835;48.850;8.938;2023-02-28T13:31:34;3.80;99.90
7588;DHT22;3835;48.850;8.938;2023-02-28T13:34:21;3.70;99.90
7588;DHT22;3835;48.850;8.938;2023-02-28T13:36:48;3.70;99.90
7588;DHT22;3835;48.850;8.938;2023-02-28T13:39:46;3.70;99.90
7588;DHT22;3835;48.850;8.938;2023-02-28T13:42:33;3.60;99.90
7588;DHT22;3835;48.850;8.938;2023-02-28T13:45:24;3.70;99.90
7588;DHT22;3835;48.850;8.938;2023-02-28T13:48:00;3.80;99.90
7588;DHT22;3835;48.850;8.938;2023-02-28T13:50:31;3.50;99.90
7588;DHT22;3835;48.850;8.938;2023-02-28T13:56:18;3.90;99.90
7588;DHT22;3835;48.850;8.938;2023-02-28T13:58:54;3.80;99.90
7588;DHT22;3835;48.850;8.938;2023-02-28T14:07:19;3.70;99.90
7588;DHT22;3835;48.850;8.938;2023-02-28T14:09:57;3.80;99.90
7588;DHT22;3835;48.850;8.938;2023-02-28T14:15:49;3.80;99.90
7588;DHT22;3835;48.850;8.938;2023-02-28T14:18:28;3.80;99.90
7588;DHT22;3835;48.850;8.938;2023-02-28T14:21:01;3.80;99.90
7588;DHT22;3835;48.850;8.938;2023-02-28T14:26:45;3.80;99.90
7588;DHT22;3835;48.850;8.938;2023-02-28T14:29:38;3.80;99.90
7588;DHT22;3835;48.850;8.938;2023-02-28T14:32:15;3.80;99.90
7588;DHT22;3835;48.850;8.938;2023-02-28T14:34:52;3.80;99.90
7588;DHT22;3835;48.850;8.938;2023-02-28T14:37:27;3.90;99.90
7588;DHT22;3835;48.850;8.938;2023-02-28T14:39:55;4.00;99.90
7588;DHT22;3835;48.850;8.938;2023-02-28T14:42:31;3.90;99.90
7588;DHT22;3835;48.850;8.938;2023-02-28T14:44:58;3.80;99.90
7588;DHT22;3835;48.850;8.938;2023-02-28T14:47:30;3.80;99.90
7588;DHT22;3835;48.850;8.938;2023-02-28T14:49:58;3.80;99.90
7588;DHT22;3835;48.850;8.938;2023-02-28T14:52:26;3.80;99.90
7588;DHT22;3835;48.850;8.938;2023-02-28T14:54:56;3.70;99.90
7588;DHT22;3835;48.850;8.938;2023-02-28T14:57:25;3.80;99.90
7588;DHT22;3835;48.850;8.938;2023-02-28T15:00:00;3.80;99.90
7588;DHT22;3835;48.850;8.938;2023-02-28T15:02:34;3.80;99.90
7588;DHT22;3835;48.850;8.938;2023-02-28T15:05:16;3.80;99.90
7588;DHT22;3835;48.850;8.938;2023-02-28T15:07:46;3.80;99.90
7588;DHT22;3835;48.850;8.938;2023-02-28T15:10:18;3.70;99.90
7588;DHT22;3835;48.850;8.938;2023-02-28T15:12:51;3.70;99.90
7588;DHT22;3835;48.850;8.938;2023-02-28T15:15:19;3.60;99.90
7588;DHT22;3835;48.850;8.938;2023-02-28T15:17:50;3.60;99.90
7588;DHT22;3835;48.850;8.938;2023-02-28T15:20:19;3.60;99.90
7588;DHT22;3835;48.850;8.938;2023-02-28T15:22:47;3.50;99.90
7588;DHT22;3835;48.850;8.938;2023-02-28T15:25:18;3.50;99.90
7588;DHT22;3835;48.850;8.938;2023-02-28T15:27:48;3.50;99.90
7588;DHT22;3835;48.850;8.938;2023-02-28T15:30:17;3.50;99.90
7588;DHT22;3835;48.850;8.938;2023-02-28T15:32:44;3.40;99.90
7588;DHT22;3835;48.850;8.938;2023-02-28T15:35:24;3.50;99.90
7588;DHT22;3835;48.850;8.938;2023-02-28T15:37:54;3.50;99.90
7588;DHT22;3835;48.850;8.938;2023-02-28T15:40:26;3.40;99.90
7588;DHT22;3835;48.850;8.938;2023-02-28T15:43:03;3.40;99.90
7588;DHT22;3835;48.850;8.938;2023-02-28T15:45:39;3.30;99.90
7588;DHT22;3835;48.850;8.938;2023-02-28T15:48:18;3.30;99.90
7588;DHT22;3835;48.850;8.938;2023-02-28T15:50:51;3.30;99.90
7588;DHT22;3835;48.850;8.938;2023-02-28T15:53:22;3.20;99.90
7588;DHT22;3835;48.850;8.938;2023-02-28T15:55:55;3.20;99.90
7588;DHT22;3835;48.850;8.938;2023-02-28T15:58:24;3.20;99.90
7588;DHT22;3835;48.850;8.938;2023-02-28T16:01:15;3.20;99.90
7588;DHT22;3835;48.850;8.938;2023-02-28T16:03:45;3.20;99.90
7588;DHT22;3835;48.850;8.938;2023-02-28T16:06:35;3.20;99.90
7588;DHT22;3835;48.850;8.938;2023-02-28T16:09:03;3.20;99.90
7588;DHT22;3835;48.850;8.938;2023-02-28T16:11:30;3.10;99.90
7588;DHT22;3835;48.850;8.938;2023-02-28T16:13:59;3.00;99.90
7588;DHT22;3835;48.850;8.938;2023-02-28T16:16:26;3.00;99.90
7588;DHT22;3835;48.850;8.938;2023-02-28T16:18:53;2.90;99.90
7588;DHT22;3835;48.850;8.938;2023-02-28T16:21:20;2.90;99.90
7588;DHT22;3835;48.850;8.938;2023-02-28T16:23:48;2.90;99.90
7588;DHT22;3835;48.850;8.938;2023-02-28T16:26:20;2.80;99.90
7588;DHT22;3835;48.850;8.938;2023-02-28T16:28:47;2.80;99.90
7588;DHT22;3835;48.850;8.938;2023-02-28T16:31:14;2.80;99.90
7588;DHT22;3835;48.850;8.938;2023-02-28T16:33:42;2.70;99.90
7588;DHT22;3835;48.850;8.938;2023-02-28T16:36:14;2.60;99.90
7588;DHT22;3835;48.850;8.938;2023-02-28T16:38:41;2.60;99.90
7588;DHT22;3835;48.850;8.938;2023-02-28T16:41:12;2.50;99.90
7588;DHT22;3835;48.850;8.938;2023-02-28T16:43:42;2.40;99.90
7588;DHT22;3835;48.850;8.938;2023-02-28T16:46:11;2.40;99.90
7588;DHT22;3835;48.850;8.938;2023-02-28T16:48:38;2.30;99.90
7588;DHT22;3835;48.850;8.938;2023-02-28T16:51:05;2.30;99.90
7588;DHT22;3835;48.850;8.938;2023-02-28T16:53:32;2.20;99.90
7588;DHT22;3835;48.850;8.938;2023-02-28T16:56:00;2.10;99.90
7588;DHT22;3835;48.850;8.938;2023-02-28T16:58:29;2.10;99.90
7588;DHT22;3835;48.850;8.938;2023-02-28T17:00:56;2.10;99.90
7588;DHT22;3835;48.850;8.938;2023-02-28T17:03:24;2.10;99.90
7588;DHT22;3835;48.850;8.938;2023-02-28T17:05:51;2.10;99.90